Time;durP1;ratioP1;P1;durP2;ratioP2;P2;SDS_P1;SDS_P2;PMS_P1;PMS_P2;Temp;Humidity;BMP_temperature;BMP_pressure;BME280_temperature;BME280_humidity;BME280_pressure;Samples;Min_cycle;Max_cycle;Signal;HPM_P1;HPM_P2
2022/12/04 00:01:04;;;;;;;8.43;6.67;;;;;;;-2.93;100.00;101798.14;1672208;83;21070;-72
2022/12/04 00:03:31;;;;;;;8.00;6.20;;;;;;;-2.94;100.00;101795.98;1684753;83;21554;-72
2022/12/04 00:06:11;;;;;;;8.00;6.20;;;;;;;-2.96;100.00;101797.98;1672970;84;21760;-73
2022/12/04 00:08:38;;;;;;;7.33;6.17;;;;;;;-2.98;100.00;101802.17;1684985;84;21468;-71
2022/12/04 00:11:06;;;;;;;7.83;6.35;;;;;;;-3.01;100.00;101800.77;1680049;83;21476;-70
2022/12/04 00:13:33;;;;;;;7.12;5.37;;;;;;;-2.99;100.00;101797.44;1677283;83;21190;-71
2022/12/04 00:16:02;;;;;;;8.13;5.75;;;;;;;-2.98;100.00;101804.75;1686581;83;21619;-70
2022/12/04 00:18:31;;;;;;;6.05;5.45;;;;;;;-2.95;100.00;101809.64;1659350;83;22001;-71
2022/12/04 00:20:59;;;;;;;7.37;5.37;;;;;;;-2.95;100.00;101806.20;1670300;84;21547;-71
2022/12/04 00:23:25;;;;;;;7.20;5.28;;;;;;;-2.97;100.00;101807.82;1658088;84;27222;-72
2022/12/04 00:26:01;;;;;;;7.78;5.45;;;;;;;-2.97;100.00;101803.55;1674412;84;21471;-72
2022/12/04 00:28:30;;;;;;;5.58;4.97;;;;;;;-2.99;100.00;101805.58;1674732;84;21562;-70
2022/12/04 00:30:58;;;;;;;7.30;5.92;;;;;;;-3.03;100.00;101804.55;1670691;83;21518;-72
2022/12/04 00:33:26;;;;;;;7.90;5.35;;;;;;;-3.03;100.00;101808.79;1664631;84;21684;-72
2022/12/04 00:36:00;;;;;;;6.95;5.25;;;;;;;-3.02;100.00;101809.28;1686017;82;21515;-71
2022/12/04 00:38:29;;;;;;;6.83;5.20;;;;;;;-3.05;100.00;101805.27;1683330;82;21786;-71
2022/12/04 00:40:56;;;;;;;7.33;5.33;;;;;;;-3.03;100.00;101807.50;1685536;82;21614;-72
2022/12/04 00:43:24;;;;;;;6.45;5.42;;;;;;;-3.03;100.00;101803.64;1693169;82;21862;-72
2022/12/04 00:45:52;;;;;;;5.80;4.72;;;;;;;-3.03;100.00;101812.66;1660813;85;20951;-72
2022/12/04 00:48:19;;;;;;;6.45;4.80;;;;;;;-3.04;100.00;101807.05;1682191;82;21594;-72
2022/12/04 00:50:45;;;;;;;9.73;5.15;;;;;;;-3.07;100.00;101807.80;1677129;82;21646;-71
2022/12/04 00:53:12;;;;;;;6.40;5.50;;;;;;;-3.06;100.00;101800.95;1678476;82;21602;-72
2022/12/04 00:55:44;;;;;;;5.67;4.57;;;;;;;-3.05;100.00;101806.55;1688301;83;21893;-71
2022/12/04 00:58:14;;;;;;;12.73;4.87;;;;;;;-3.06;100.00;101806.09;1688165;82;21470;-73
2022/12/04 01:00:41;;;;;;;5.78;4.62;;;;;;;-3.06;100.00;101809.54;1674225;83;21448;-72
2022/12/04 01:03:08;;;;;;;6.28;5.12;;;;;;;-3.05;100.00;101803.59;1679662;83;21056;-74
2022/12/04 01:05:42;;;;;;;6.40;4.95;;;;;;;-3.06;100.00;101802.23;1690537;83;21153;-73
2022/12/04 01:08:09;;;;;;;6.03;4.70;;;;;;;-3.05;100.00;101803.98;1685424;82;21908;-72
2022/12/04 01:10:40;;;;;;;5.43;4.87;;;;;;;-3.02;100.00;101806.30;1686355;82;21555;-73
2022/12/04 01:13:08;;;;;;;6.45;5.25;;;;;;;-2.99;100.00;101806.87;1696744;82;21537;-72
2022/12/04 01:15:42;;;;;;;6.97;5.15;;;;;;;-2.98;100.00;101799.19;1686803;82;21527;-72
2022/12/04 01:18:13;;;;;;;6.45;5.37;;;;;;;-2.98;100.00;101800.48;1695212;82;21537;-71
2022/12/04 01:20:40;;;;;;;6.58;5.40;;;;;;;-2.96;100.00;101799.27;1679460;83;21944;-71
2022/12/04 01:23:06;;;;;;;8.05;5.90;;;;;;;-2.98;100.00;101799.60;1723710;80;21706;-71
2022/12/04 01:25:33;;;;;;;5.95;5.35;;;;;;;-2.99;100.00;101801.72;1725843;81;21475;-72
2022/12/04 01:28:00;;;;;;;8.55;6.58;;;;;;;-3.02;100.00;101802.84;1727294;81;21519;-71
2022/12/04 01:30:27;;;;;;;8.00;6.05;;;;;;;-3.03;100.00;101802.36;1675271;82;21596;-72
2022/12/04 01:32:54;;;;;;;7.15;5.40;;;;;;;-3.04;100.00;101808.34;1700340;82;21795;-71
2022/12/04 01:35:24;;;;;;;8.63;5.97;;;;;;;-3.08;100.00;101806.44;1696886;82;21024;-70
2022/12/04 01:37:51;;;;;;;7.42;5.65;;;;;;;-3.08;100.00;101800.87;1699765;83;21470;-70
2022/12/04 01:40:18;;;;;;;9.80;6.20;;;;;;;-3.07;100.00;101805.22;1686893;83;21026;-72
2022/12/04 01:42:45;;;;;;;7.33;5.90;;;;;;;-3.10;100.00;101800.33;1691425;82;21644;-71
2022/12/04 01:45:40;;;;;;;9.70;6.08;;;;;;;-3.09;100.00;101800.38;1687106;82;25505;-73
2022/12/04 01:48:29;;;;;;;6.85;5.60;;;;;;;-3.06;100.00;101802.23;1692731;83;21589;-71
2022/12/04 01:51:19;;;;;;;8.58;5.72;;;;;;;-3.06;100.00;101809.95;1678344;83;21572;-72
2022/12/04 01:53:52;;;;;;;6.35;5.60;;;;;;;-3.07;100.00;101809.47;1670412;83;21515;-71
2022/12/04 01:56:23;;;;;;;7.03;6.12;;;;;;;-3.11;100.00;101800.71;1678555;84;21453;-72
2022/12/04 01:58:52;;;;;;;7.20;5.83;;;;;;;-3.07;100.00;101805.60;1674564;84;21525;-71
2022/12/04 02:01:19;;;;;;;6.87;6.28;;;;;;;-3.07;100.00;101809.47;1664275;84;21479;-72
2022/12/04 02:03:45;;;;;;;7.15;5.33;;;;;;;-3.11;100.00;101809.72;1698615;82;21556;-71
2022/12/04 02:06:12;;;;;;;9.93;6.22;;;;;;;-3.10;100.00;101809.34;1696236;82;21540;-71
2022/12/04 02:08:39;;;;;;;7.40;5.45;;;;;;;-3.08;100.00;101808.59;1682513;83;21825;-71
2022/12/04 06:16:02;;;;;;;19.00;9.28;;;;;;;-5.75;100.00;101880.92;1771845;78;22621;-74
2022/12/04 06:18:29;;;;;;;;;;;;;;;-5.52;100.00;101894.20;1733638;80;21104;-74
2022/12/04 06:20:59;;;;;;;10.03;6.20;;;;;;;-5.36;100.00;101901.13;1737490;80;21991;-75
2022/12/04 06:23:26;;;;;;;11.00;6.67;;;;;;;-5.25;100.00;101896.62;1705547;83;21765;-72
2022/12/04 06:25:53;;;;;;;9.43;7.28;;;;;;;-5.14;100.00;101899.00;1703450;83;21592;-60
2022/12/04 06:28:19;;;;;;;12.43;7.53;;;;;;;-5.01;100.00;101901.87;1706881;83;21442;-59
2022/12/04 06:30:46;;;;;;;10.20;7.13;;;;;;;-4.86;100.00;101905.66;1704434;83;21127;-59
2022/12/04 06:33:13;;;;;;;12.68;8.00;;;;;;;-4.74;100.00;101915.75;1706448;83;22120;-60
2022/12/04 06:35:39;;;;;;;13.45;7.35;;;;;;;-4.61;100.00;101923.74;1676929;83;21628;-60
2022/12/04 06:38:06;;;;;;;10.98;7.30;;;;;;;-4.55;100.00;101918.52;1704279;82;21494;-59
2022/12/04 06:40:34;;;;;;;11.08;7.25;;;;;;;-4.78;100.00;101867.20;1699874;82;21648;-60
2022/12/04 06:43:00;;;;;;;13.78;8.20;;;;;;;-4.40;100.00;101914.63;1697753;82;21545;-60
2022/12/04 06:45:27;;;;;;;12.93;7.83;;;;;;;-4.31;100.00;101914.25;1701322;82;21916;-60
2022/12/04 06:47:53;;;;;;;11.68;8.13;;;;;;;-4.31;100.00;101915.53;1701793;82;21541;-60
2022/12/04 06:50:20;;;;;;;9.23;6.50;;;;;;;-4.27;100.00;101920.03;1694402;83;21431;-60
2022/12/04 06:52:47;;;;;;;14.65;9.25;;;;;;;-4.24;100.00;101921.87;1692698;82;21536;-60
2022/12/04 06:55:14;;;;;;;12.77;8.67;;;;;;;-4.23;100.00;101916.82;1680024;83;21578;-60
2022/12/04 06:57:40;;;;;;;12.00;8.30;;;;;;;-4.20;100.00;101921.23;1693138;82;21812;-60
2022/12/04 07:00:10;;;;;;;10.95;8.43;;;;;;;-4.18;100.00;101924.76;1693571;83;20978;-59
2022/12/04 07:02:37;;;;;;;12.90;8.13;;;;;;;-4.11;100.00;101923.01;1701759;82;21634;-61
2022/12/04 07:05:04;;;;;;;10.48;7.25;;;;;;;-4.07;100.00;101919.79;1695927;82;21613;-61
2022/12/04 07:07:31;;;;;;;11.35;8.48;;;;;;;-4.04;100.00;101921.66;1689714;82;26939;-61
2022/12/04 07:09:58;;;;;;;;;;;;;;;-4.05;100.00;101922.45;1709615;82;21999;-59
2022/12/04 07:12:25;;;;;;;11.00;6.60;;;;;;;-4.12;100.00;101919.97;1694953;82;20429;-61
2022/12/04 07:14:51;;;;;;;8.53;6.85;;;;;;;-4.15;100.00;101923.24;1702302;82;21495;-60
2022/12/04 07:17:18;;;;;;;12.53;7.30;;;;;;;-4.13;100.00;101923.33;1683083;83;21519;-61
2022/12/04 07:19:45;;;;;;;11.20;7.70;;;;;;;-4.07;100.00;101915.06;1679147;83;21573;-63
2022/12/04 07:22:12;;;;;;;10.97;7.70;;;;;;;-4.04;100.00;101921.66;1716771;81;21941;-63
2022/12/04 07:24:39;;;;;;;10.18;7.28;;;;;;;-3.98;100.00;101925.83;1695255;82;21532;-63
2022/12/04 07:27:06;;;;;;;10.43;7.40;;;;;;;-4.00;100.00;101920.61;1728782;80;21628;-65
2022/12/04 07:29:33;;;;;;;12.55;7.45;;;;;;;-4.00;100.00;101918.03;1708550;80;21585;-63
2022/12/04 07:32:00;;;;;;;10.32;7.28;;;;;;;-4.04;100.00;101913.95;1682568;82;21560;-60
2022/12/04 07:34:26;;;;;;;10.43;7.75;;;;;;;-4.04;100.00;101913.95;1687748;82;21772;-60
2022/12/04 07:36:53;;;;;;;10.93;7.42;;;;;;;-4.02;100.00;101912.34;1689039;82;21620;-61
2022/12/04 07:39:20;;;;;;;10.32;7.00;;;;;;;-4.03;100.00;101906.33;1680468;82;21458;-61
2022/12/04 07:41:47;;;;;;;10.43;7.42;;;;;;;-4.01;100.00;101911.14;1733767;81;21503;-62
2022/12/04 07:44:14;;;;;;;13.83;7.42;;;;;;;-3.99;100.00;101917.25;1731816;80;21447;-60
2022/12/04 07:46:41;;;;;;;10.08;7.47;;;;;;;-3.98;100.00;101916.84;1724956;81;21968;-60
2022/12/04 07:49:09;;;;;;;9.23;6.90;;;;;;;-3.98;100.00;101921.56;1727739;81;21569;-60
2022/12/04 07:51:36;;;;;;;10.25;7.67;;;;;;;-3.95;100.00;101913.16;1667827;83;20999;-60
2022/12/04 07:54:03;;;;;;;9.95;7.22;;;;;;;-3.97;100.00;101907.92;1687449;82;21619;-63
2022/12/04 07:56:31;;;;;;;10.67;7.33;;;;;;;-3.99;100.00;101910.82;1677263;82;21588;-62
2022/12/04 07:58:59;;;;;;;9.70;7.33;;;;;;;-3.97;100.00;101916.05;1688262;82;21942;-61
2022/12/04 08:01:25;;;;;;;10.63;7.15;;;;;;;-3.98;100.00;101917.71;1724796;80;21534;-62
2022/12/04 08:03:55;;;;;;;9.78;7.00;;;;;;;-3.96;100.00;101927.67;1688434;82;21684;-63
2022/12/04 08:06:23;;;;;;;9.85;7.22;;;;;;;-4.00;100.00;101923.17;1697634;82;21459;-63
2022/12/04 08:08:49;;;;;;;;;;;;;;;-3.98;100.00;101922.85;1726187;81;21558;-63
2022/12/04 08:11:21;;;;;;;8.93;6.17;;;;;;;-4.01;100.00;101917.95;1726052;81;21777;-63
2022/12/04 08:13:48;;;;;;;10.38;6.87;;;;;;;-3.98;100.00;101912.98;1665084;84;21491;-62
2022/12/04 08:16:15;;;;;;;9.95;6.72;;;;;;;-3.95;100.00;101910.17;1683725;82;21484;-62
2022/12/04 08:18:45;;;;;;;11.17;7.07;;;;;;;-3.93;100.00;101914.98;1685565;82;21628;-63
2022/12/04 08:21:13;;;;;;;10.30;7.03;;;;;;;-3.87;100.00;101910.98;1729764;82;21451;-63
2022/12/04 08:23:40;;;;;;;9.48;7.03;;;;;;;-3.87;100.00;101918.28;1723436;81;21993;-63
2022/12/04 08:26:07;;;;;;;10.85;7.15;;;;;;;-3.82;100.00;101913.39;1721236;81;21515;-63
2022/12/04 08:28:34;;;;;;;9.58;6.47;;;;;;;-3.82;100.00;101910.41;1717707;82;21530;-64
2022/12/04 08:31:05;;;;;;;9.25;7.05;;;;;;;-3.78;100.00;101908.48;1736741;80;21002;-63
2022/12/04 08:33:32;;;;;;;9.85;6.95;;;;;;;-3.77;100.00;101902.92;1724160;80;21511;-62
2022/12/04 08:35:58;;;;;;;8.40;6.67;;;;;;;-3.74;100.00;101906.54;1726347;80;22149;-66
2022/12/04 08:38:25;;;;;;;8.40;6.60;;;;;;;-3.78;100.00;101894.34;1737700;80;21474;-64
2022/12/04 08:40:52;;;;;;;9.23;7.00;;;;;;;-3.70;100.00;101911.44;1692763;83;21491;-65
2022/12/04 08:43:18;;;;;;;9.78;6.62;;;;;;;-3.72;100.00;101910.07;1719837;80;21597;-64
2022/12/04 08:45:57;;;;;;;8.33;6.20;;;;;;;-3.67;100.00;101907.75;1729286;80;21592;-64
2022/12/04 08:48:25;;;;;;;9.43;6.80;;;;;;;-3.67;100.00;101905.56;1728888;81;21765;-63
2022/12/04 08:50:51;;;;;;;9.10;6.10;;;;;;;-3.64;100.00;101906.60;1730336;80;21545;-64
2022/12/04 08:53:25;;;;;;;8.25;6.20;;;;;;;-3.61;100.00;101899.47;1699037;80;22329;-63
2022/12/04 08:55:52;;;;;;;7.42;5.72;;;;;;;-3.59;100.00;101898.73;1680735;84;21158;-63
2022/12/04 08:58:19;;;;;;;8.93;5.95;;;;;;;-3.56;100.00;101888.98;1679784;83;21671;-64
2022/12/04 09:00:47;;;;;;;9.03;6.83;;;;;;;-3.49;100.00;101887.21;1676556;84;22077;-63
2022/12/04 09:03:15;;;;;;;8.95;6.60;;;;;;;-3.46;100.00;101887.37;1706046;82;21569;-61
2022/12/04 09:05:46;;;;;;;8.00;5.80;;;;;;;-3.44;100.00;101891.32;1705537;81;21022;-61
2022/12/04 09:08:14;;;;;;;8.25;6.35;;;;;;;-3.40;100.00;101893.23;1699740;83;21013;-61
2022/12/04 09:10:41;;;;;;;;;;;;;;;-3.40;100.00;101891.53;1708180;82;21554;-61
2022/12/04 09:13:08;;;;;;;6.80;5.12;;;;;;;-3.45;100.00;101886.55;1698082;83;21907;-63
2022/12/04 09:15:39;;;;;;;6.53;5.83;;;;;;;-3.44;100.00;101889.62;1704809;81;21526;-63
2022/12/04 09:18:07;;;;;;;6.05;5.08;;;;;;;-3.43;100.00;101886.64;1706753;81;21077;-63
2022/12/04 09:20:34;;;;;;;7.15;5.37;;;;;;;-3.39;100.00;101893.31;1712796;82;21521;-63
2022/12/04 09:23:03;;;;;;;6.03;5.42;;;;;;;-3.38;100.00;101891.61;1705482;83;21476;-67
2022/12/04 09:25:30;;;;;;;7.20;5.08;;;;;;;-3.38;100.00;101887.75;1710684;82;21917;-63
2022/12/04 09:27:57;;;;;;;9.55;5.65;;;;;;;-3.41;100.00;101885.92;1714047;82;21424;-64
2022/12/04 09:30:25;;;;;;;8.78;5.95;;;;;;;-3.42;100.00;101882.86;1701759;83;21474;-63
2022/12/04 09:32:52;;;;;;;6.50;5.80;;;;;;;-3.39;100.00;101884.69;1704850;83;21091;-62
2022/12/04 09:35:19;;;;;;;7.03;5.97;;;;;;;-3.37;100.00;101880.13;1705607;83;21417;-62
2022/12/04 09:37:45;;;;;;;6.50;4.80;;;;;;;-3.32;100.00;101880.33;1677875;83;22018;-63
2022/12/04 09:40:24;;;;;;;7.83;6.20;;;;;;;-3.36;100.00;101876.72;1677411;83;21530;-64
2022/12/04 09:43:30;;;;;;;7.45;5.45;;;;;;;-3.36;100.00;101881.00;1708688;83;21675;-64
2022/12/04 09:46:01;;;;;;;8.65;5.12;;;;;;;-3.40;100.00;101871.36;1711886;82;21463;-65
2022/12/04 09:48:32;;;;;;;8.10;5.80;;;;;;;-3.47;100.00;101870.58;1709057;82;21430;-61
2022/12/04 09:50:59;;;;;;;5.50;4.90;;;;;;;-3.44;100.00;101870.73;1683139;84;21927;-67
2022/12/04 09:53:29;;;;;;;8.50;5.70;;;;;;;-3.44;100.00;101872.90;1708028;82;21523;-68
2022/12/04 09:56:04;;;;;;;7.58;4.83;;;;;;;-3.41;100.00;101870.49;1708288;82;21050;-65
2022/12/04 09:58:48;;;;;;;6.70;5.75;;;;;;;-3.39;100.00;101869.25;1711900;82;21503;-71
2022/12/04 10:01:28;;;;;;;5.87;4.65;;;;;;;-3.41;100.00;101864.44;1685835;82;21483;-65
2022/12/04 10:03:54;;;;;;;7.30;5.95;;;;;;;-3.43;100.00;101863.48;1700804;82;21846;-64
2022/12/04 10:06:24;;;;;;;7.92;5.42;;;;;;;-3.45;100.00;101856.97;1705510;82;21637;-61
2022/12/04 10:09:17;;;;;;;6.75;4.92;;;;;;;-3.45;100.00;101856.09;1703273;82;21532;-63
2022/12/04 10:11:50;;;;;;;7.70;5.22;;;;;;;-3.39;100.00;101854.73;1661724;82;21903;-74
2022/12/04 10:14:44;;;;;;;6.62;4.67;;;;;;;-3.37;100.00;101847.97;1705527;82;21574;-68
2022/12/04 10:17:34;;;;;;;7.60;4.35;;;;;;;-3.36;100.00;101853.57;1713286;82;21982;-65
2022/12/04 10:20:27;;;;;;;6.08;4.70;;;;;;;-3.37;100.00;101850.53;1707258;82;21604;-66
2022/12/04 10:23:26;;;;;;;4.97;4.12;;;;;;;-3.36;100.00;101848.42;1701624;82;21494;-64
2022/12/04 10:25:54;;;;;;;4.55;4.15;;;;;;;-3.35;100.00;101839.04;1713493;82;21548;-62
2022/12/04 10:28:31;;;;;;;6.80;5.40;;;;;;;-3.35;100.00;101839.91;1703184;82;21545;-61
2022/12/04 10:31:01;;;;;;;;;;;;;;;-3.37;100.00;101838.05;1709557;82;21859;-61
2022/12/04 10:33:52;;;;;;;5.67;4.55;;;;;;;-3.42;100.00;101842.98;1721291;82;21516;-67
2022/12/04 10:36:22;;;;;;;5.40;4.37;;;;;;;-3.43;100.00;101841.20;1713356;82;21471;-62
2022/12/04 10:39:02;;;;;;;5.70;4.60;;;;;;;-3.44;100.00;101839.45;1727419;82;21525;-64
